Time;durP1;ratioP1;P1;durP2;ratioP2;P2;SDS_P1;SDS_P2;PMS_P1;PMS_P2;Temp;Humidity;BMP_temperature;BMP_pressure;BME280_temperature;BME280_humidity;BME280_pressure;Samples;Min_cycle;Max_cycle;Signal;HPM_P1;HPM_P2
2022/06/07 00:01:33;;;;;;;6.18;4.75;;;;;;;;;;5025111;28;20043;-70
2022/06/07 00:04:00;;;;;;;7.47;5.13;;;;;;;;;;5044105;28;20047;-70
2022/06/07 00:06:25;;;;;;;13.32;5.03;;;;;;;;;;5042937;28;20052;-70
2022/06/07 00:08:51;;;;;;;5.32;4.82;;;;;;;;;;5044102;28;20512;-70
2022/06/07 00:11:18;;;;;;;10.55;5.10;;;;;;;;;;5042970;28;20131;-70
2022/06/07 00:13:45;;;;;;;6.40;4.70;;;;;;;;;;5044000;28;20416;-70
2022/06/07 00:16:11;;;;;;;8.63;5.38;;;;;;;;;;5043528;28;20036;-70
2022/06/07 00:18:36;;;;;;;7.57;5.30;;;;;;;;;;5042547;28;20036;-70
2022/06/07 00:21:02;;;;;;;5.82;4.90;;;;;;;;;;5043184;28;20501;-70
2022/06/07 00:23:30;;;;;;;6.20;4.40;;;;;;;;;;5043515;28;20052;-70
2022/06/07 00:25:56;;;;;;;5.22;4.72;;;;;;;;;;5042528;28;20060;-70
2022/06/07 00:28:22;;;;;;;4.85;4.13;;;;;;;;;;5042964;28;20060;-70
2022/06/07 00:30:49;;;;;;;7.97;5.00;;;;;;;;;;5042742;28;20029;-70
2022/06/07 00:33:16;;;;;;;7.30;4.25;;;;;;;;;;5025538;28;20040;-70
2022/06/07 00:35:41;;;;;;;6.35;4.75;;;;;;;;;;5025517;28;20036;-70
2022/06/07 00:38:07;;;;;;;6.07;4.50;;;;;;;;;;5025200;28;20032;-70
2022/06/07 00:40:33;;;;;;;5.95;4.65;;;;;;;;;;5042885;28;20393;-70
2022/06/07 00:42:58;;;;;;;5.13;4.20;;;;;;;;;;5024580;28;20033;-70
2022/06/07 00:45:24;;;;;;;6.50;4.22;;;;;;;;;;5043286;28;20063;-71
2022/06/07 00:47:50;;;;;;;5.40;4.28;;;;;;;;;;5042567;28;20025;-71
2022/06/07 00:50:40;;;;;;;5.43;4.40;;;;;;;;;;5024957;28;20124;-71
2022/06/07 00:53:21;;;;;;;7.68;4.30;;;;;;;;;;5042555;28;20120;-71
2022/06/07 00:55:48;;;;;;;6.20;4.43;;;;;;;;;;5024642;28;20079;-71
2022/06/07 00:58:14;;;;;;;7.00;4.55;;;;;;;;;;5025220;28;20571;-71
2022/06/07 01:00:44;;;;;;;5.90;4.47;;;;;;;;;;5024603;28;20150;-71
2022/06/07 01:03:11;;;;;;;5.35;4.55;;;;;;;;;;5024516;28;20036;-71
2022/06/07 01:05:37;;;;;;;7.20;4.78;;;;;;;;;;5024790;28;20408;-71
2022/06/07 01:10:59;;;;;;;5.50;5.00;;;;;;;;;;5024327;28;20045;-71
2022/06/07 01:13:32;;;;;;;8.05;4.28;;;;;;;;;;5024821;28;20369;-71
2022/06/07 01:16:07;;;;;;;9.80;4.82;;;;;;;;;;5009199;28;20036;-71
2022/06/07 01:18:37;;;;;;;8.52;5.38;;;;;;;;;;5024352;28;20033;-71
2022/06/07 01:21:30;;;;;;;7.72;5.38;;;;;;;;;;5024169;28;20045;-71
2022/06/07 01:23:56;;;;;;;7.40;5.07;;;;;;;;;;5024123;28;21239;-71
2022/06/07 01:26:27;;;;;;;6.47;4.22;;;;;;;;;;5025152;28;20064;-72
2022/06/07 01:28:53;;;;;;;5.75;5.07;;;;;;;;;;5042195;28;20033;-71
2022/06/07 01:31:19;;;;;;;8.23;4.85;;;;;;;;;;5023786;28;20029;-71
2022/06/07 01:33:45;;;;;;;6.90;5.70;;;;;;;;;;5041519;28;20041;-71
2022/06/07 01:36:13;;;;;;;8.15;5.45;;;;;;;;;;5024144;28;20020;-71
2022/06/07 01:38:42;;;;;;;15.10;5.82;;;;;;;;;;5042102;28;20131;-71
2022/06/07 01:43:53;;;;;;;5.15;4.65;;;;;;;;;;5024174;28;20370;-71
2022/06/07 01:46:19;;;;;;;4.95;4.55;;;;;;;;;;5022867;28;20029;-71
2022/06/07 01:48:46;;;;;;;10.35;5.50;;;;;;;;;;5023823;28;20029;-70
2022/06/07 01:51:12;;;;;;;8.63;5.15;;;;;;;;;;5023841;28;20033;-71
2022/06/07 01:53:38;;;;;;;7.50;5.70;;;;;;;;;;5024168;28;20059;-71
2022/06/07 01:56:13;;;;;;;5.60;5.10;;;;;;;;;;5017525;28;20801;-71
2022/06/07 01:58:42;;;;;;;7.55;5.72;;;;;;;;;;5024064;28;20037;-71
2022/06/07 02:01:09;;;;;;;9.07;5.50;;;;;;;;;;5023149;28;20043;-70
2022/06/07 02:03:34;;;;;;;7.38;5.95;;;;;;;;;;5041696;28;20029;-70
2022/06/07 02:06:06;;;;;;;6.22;5.60;;;;;;;;;;5023927;28;20039;-70
2022/06/07 02:08:32;;;;;;;7.80;5.88;;;;;;;;;;5041367;28;20068;-70
2022/06/07 02:11:05;;;;;;;8.90;5.72;;;;;;;;;;5022807;28;20084;-70
2022/06/07 02:13:32;;;;;;;8.93;6.20;;;;;;;;;;5024259;28;20424;-70
2022/06/07 02:15:58;;;;;;;8.77;5.82;;;;;;;;;;5041228;28;20025;-70
2022/06/07 02:18:24;;;;;;;9.20;6.57;;;;;;;;;;5023114;28;20107;-70
2022/06/07 02:21:03;;;;;;;8.40;6.20;;;;;;;;;;5023229;28;20035;-70
2022/06/07 02:23:31;;;;;;;12.48;6.20;;;;;;;;;;5023779;28;20107;-70
2022/06/07 02:26:03;;;;;;;7.80;6.00;;;;;;;;;;5023192;28;20037;-70
2022/06/07 02:28:31;;;;;;;5.80;4.80;;;;;;;;;;5023000;28;20830;-70
2022/06/07 02:30:58;;;;;;;4.20;3.72;;;;;;;;;;5023013;28;20048;-71
2022/06/07 02:33:24;;;;;;;5.72;4.55;;;;;;;;;;5023788;28;20054;-69
2022/06/07 02:35:50;;;;;;;6.55;4.43;;;;;;;;;;5041156;28;20136;-70
2022/06/07 02:38:16;;;;;;;4.35;3.95;;;;;;;;;;5041241;28;20123;-69
2022/06/07 02:40:44;;;;;;;6.75;4.57;;;;;;;;;;5040532;28;20040;-69
2022/06/07 02:43:10;;;;;;;6.45;4.82;;;;;;;;;;5022908;28;20436;-70
2022/06/07 02:45:35;;;;;;;6.53;4.65;;;;;;;;;;5006477;28;20033;-70
2022/06/07 02:48:01;;;;;;;6.50;4.25;;;;;;;;;;5023309;28;20075;-70
2022/06/07 02:50:28;;;;;;;5.68;4.22;;;;;;;;;;5021839;28;20697;-70
2022/06/07 02:52:53;;;;;;;6.97;3.88;;;;;;;;;;5006524;28;20029;-69
2022/06/07 02:55:24;;;;;;;5.93;4.15;;;;;;;;;;5007377;28;20086;-70
2022/06/07 02:57:53;;;;;;;7.93;4.00;;;;;;;;;;5023372;28;20044;-69
2022/06/07 03:00:23;;;;;;;4.72;3.92;;;;;;;;;;5023269;28;20409;-70
2022/06/07 03:02:49;;;;;;;4.90;3.92;;;;;;;;;;5005565;28;20039;-70
2022/06/07 03:05:15;;;;;;;4.90;3.88;;;;;;;;;;5006834;28;20512;-70
2022/06/07 03:07:48;;;;;;;9.73;4.82;;;;;;;;;;5022667;28;20036;-70
2022/06/07 03:10:14;;;;;;;6.10;4.40;;;;;;;;;;5023392;28;20029;-70
2022/06/07 03:12:41;;;;;;;11.77;4.72;;;;;;;;;;5021782;28;20044;-70
2022/06/07 03:15:13;;;;;;;4.70;4.30;;;;;;;;;;5022957;28;20037;-70
2022/06/07 03:17:40;;;;;;;7.70;4.43;;;;;;;;;;5023014;28;20102;-70
2022/06/07 03:20:08;;;;;;;4.47;3.97;;;;;;;;;;5023375;28;20104;-70
2022/06/07 03:22:36;;;;;;;6.68;4.20;;;;;;;;;;5020183;28;20438;-70
2022/06/07 03:25:07;;;;;;;5.10;3.85;;;;;;;;;;5021701;28;20447;-70
2022/06/07 03:27:36;;;;;;;7.40;3.80;;;;;;;;;;5021024;28;20052;-70
2022/06/07 03:30:06;;;;;;;5.43;4.32;;;;;;;;;;5021625;28;20036;-70
2022/06/07 03:32:34;;;;;;;4.30;3.90;;;;;;;;;;5036670;28;20047;-70
2022/06/07 03:35:01;;;;;;;4.43;3.55;;;;;;;;;;5022290;28;20025;-70
2022/06/07 03:37:27;;;;;;;7.10;4.13;;;;;;;;;;5022929;28;20640;-70
2022/06/07 03:39:53;;;;;;;5.38;3.50;;;;;;;;;;5022695;28;20033;-70
2022/06/07 03:42:18;;;;;;;6.55;4.00;;;;;;;;;;5022158;28;20091;-70
2022/06/07 03:44:50;;;;;;;4.72;4.18;;;;;;;;;;5022216;28;20128;-71
2022/06/07 03:47:19;;;;;;;4.82;4.00;;;;;;;;;;5022696;28;20091;-70
2022/06/07 03:49:46;;;;;;;4.97;3.90;;;;;;;;;;5022778;28;20493;-72
2022/06/07 03:52:14;;;;;;;5.47;3.92;;;;;;;;;;5022462;28;20055;-71
2022/06/07 03:54:42;;;;;;;6.95;4.20;;;;;;;;;;5022053;28;20035;-70
2022/06/07 03:57:09;;;;;;;5.10;3.85;;;;;;;;;;5021349;28;20099;-69
2022/06/07 03:59:40;;;;;;;4.97;4.32;;;;;;;;;;5022715;28;20033;-70
2022/06/07 04:02:07;;;;;;;4.70;3.75;;;;;;;;;;5023975;28;20047;-70
2022/06/07 04:04:37;;;;;;;4.70;4.20;;;;;;;;;;5025509;28;20048;-70
2022/06/07 04:09:54;;;;;;;6.15;4.30;;;;;;;;;;5024857;28;20112;-69
2022/06/07 04:12:29;;;;;;;4.07;3.67;;;;;;;;;;5024593;28;20505;-69
2022/06/07 04:14:56;;;;;;;7.57;4.43;;;;;;;;;;5026135;28;20071;-69
2022/06/07 04:17:22;;;;;;;7.40;4.05;;;;;;;;;;5024890;28;20033;-69
2022/06/07 04:19:54;;;;;;;7.75;4.07;;;;;;;;;;5026022;28;20131;-69
2022/06/07 04:22:21;;;;;;;7.47;4.13;;;;;;;;;;5025371;28;20132;-69
2022/06/07 04:24:53;;;;;;;6.13;3.90;;;;;;;;;;5025142;28;20044;-69
2022/06/07 04:27:21;;;;;;;5.07;3.60;;;;;;;;;;5024915;28;20031;-69
2022/06/07 04:29:51;;;;;;;7.57;4.40;;;;;;;;;;5026160;28;20395;-71
2022/06/07 04:32:17;;;;;;;7.40;3.78;;;;;;;;;;5024973;28;20071;-70
2022/06/07 04:34:45;;;;;;;7.30;4.00;;;;;;;;;;5026021;28;20107;-70
2022/06/07 04:37:13;;;;;;;7.47;4.07;;;;;;;;;;5009447;28;20082;-71
2022/06/07 04:39:40;;;;;;;6.07;4.00;;;;;;;;;;5008077;28;20040;-70
2022/06/07 04:42:09;;;;;;;8.40;4.22;;;;;;;;;;5024790;28;20040;-72
2022/06/07 04:44:51;;;;;;;6.82;4.18;;;;;;;;;;5025248;28;20045;-70
2022/06/07 04:47:19;;;;;;;9.23;4.03;;;;;;;;;;5041435;28;20083;-69
2022/06/07 04:49:44;;;;;;;3.67;3.38;;;;;;;;;;5024503;28;20033;-69
2022/06/07 04:52:12;;;;;;;7.63;3.42;;;;;;;;;;5009617;28;20111;-71
2022/06/07 04:54:40;;;;;;;9.68;3.60;;;;;;;;;;5024814;28;20528;-69
2022/06/07 04:57:07;;;;;;;3.60;3.30;;;;;;;;;;5024836;28;20033;-69
2022/06/07 04:59:35;;;;;;;3.70;3.40;;;;;;;;;;5024684;28;20036;-70
2022/06/07 05:02:02;;;;;;;7.03;3.85;;;;;;;;;;5023984;28;20068;-71
2022/06/07 05:04:30;;;;;;;5.00;3.13;;;;;;;;;;5023898;28;20060;-72
2022/06/07 05:07:00;;;;;;;5.30;3.80;;;;;;;;;;5024610;28;20037;-72
2022/06/07 05:09:48;;;;;;;4.05;3.65;;;;;;;;;;5024725;28;20040;-71
2022/06/07 05:12:20;;;;;;;5.05;3.42;;;;;;;;;;5039352;28;20504;-70
2022/06/07 05:14:49;;;;;;;5.35;3.30;;;;;;;;;;5024389;28;20508;-70
2022/06/07 05:17:21;;;;;;;3.92;3.00;;;;;;;;;;5020033;28;20064;-70
2022/06/07 05:19:51;;;;;;;4.07;3.55;;;;;;;;;;5024140;28;20040;-71
2022/06/07 05:22:17;;;;;;;3.88;3.58;;;;;;;;;;5041193;28;20040;-71
2022/06/07 05:24:48;;;;;;;5.30;4.00;;;;;;;;;;5023760;28;20048;-69
2022/06/07 05:27:20;;;;;;;4.72;3.60;;;;;;;;;;5024786;28;20703;-72
2022/06/07 05:29:55;;;;;;;3.67;3.33;;;;;;;;;;5024654;28;20029;-70
2022/06/07 05:32:39;;;;;;;6.65;3.53;;;;;;;;;;5024238;28;20124;-70
2022/06/07 05:35:07;;;;;;;4.13;3.60;;;;;;;;;;5019923;28;20593;-70
2022/06/07 05:37:37;;;;;;;4.70;3.58;;;;;;;;;;5024644;28;20582;-70
2022/06/07 05:40:21;;;;;;;4.25;3.28;;;;;;;;;;5023956;28;20120;-70
2022/06/07 05:42:48;;;;;;;4.07;3.28;;;;;;;;;;5007003;28;20048;-70
2022/06/07 05:45:20;;;;;;;3.67;3.30;;;;;;;;;;5022524;28;20033;-70
2022/06/07 05:47:47;;;;;;;3.22;2.92;;;;;;;;;;5023880;28;20099;-70
2022/06/07 05:50:13;;;;;;;5.07;3.05;;;;;;;;;;5007691;28;20032;-70
2022/06/07 05:52:43;;;;;;;4.40;3.45;;;;;;;;;;5023693;28;20056;-70
2022/06/07 05:55:11;;;;;;;4.13;3.13;;;;;;;;;;5022516;28;20035;-70
2022/06/07 05:57:49;;;;;;;4.68;3.10;;;;;;;;;;5021411;28;20029;-70
2022/06/07 06:00:16;;;;;;;5.00;3.63;;;;;;;;;;5040714;28;20061;-71
2022/06/07 06:02:47;;;;;;;3.40;3.10;;;;;;;;;;5023590;28;20040;-70
2022/06/07 06:05:24;;;;;;;8.75;3.88;;;;;;;;;;5023367;28;20037;-69
2022/06/07 06:11:10;;;;;;;4.28;3.72;;;;;;;;;;5021581;28;20032;-71
2022/06/07 06:13:39;;;;;;;4.53;3.83;;;;;;;;;;5022801;28;20124;-69
2022/06/07 06:16:11;;;;;;;7.28;4.03;;;;;;;;;;5022861;28;20790;-69
2022/06/07 06:18:42;;;;;;;5.65;3.75;;;;;;;;;;5023011;28;20051;-69
2022/06/07 06:21:09;;;;;;;4.32;3.92;;;;;;;;;;5024081;28;20047;-69
2022/06/07 06:23:35;;;;;;;6.55;3.70;;;;;;;;;;5022213;28;20039;-69
2022/06/07 06:26:07;;;;;;;4.25;3.85;;;;;;;;;;5023821;28;20481;-69
2022/06/07 06:28:33;;;;;;;6.20;3.95;;;;;;;;;;5022318;28;20505;-71
2022/06/07 06:31:03;;;;;;;5.63;4.32;;;;;;;;;;5023560;28;20037;-70
2022/06/07 06:33:37;;;;;;;6.40;4.30;;;;;;;;;;5022800;28;20155;-70
2022/06/07 06:36:06;;;;;;;4.00;3.70;;;;;;;;;;5023174;28;20033;-70
2022/06/07 06:38:35;;;;;;;4.60;4.00;;;;;;;;;;5022681;28;20033;-70
2022/06/07 06:41:12;;;;;;;4.40;3.60;;;;;;;;;;5023307;28;20032;-70
2022/06/07 06:43:39;;;;;;;4.72;4.03;;;;;;;;;;5022278;28;20033;-70
2022/06/07 06:46:21;;;;;;;4.95;4.00;;;;;;;;;;5022967;28;20029;-70
2022/06/07 06:48:47;;;;;;;4.38;3.88;;;;;;;;;;5022145;28;20032;-70
2022/06/07 06:51:17;;;;;;;8.18;3.90;;;;;;;;;;5023254;28;20037;-70
2022/06/07 06:53:43;;;;;;;6.55;4.18;;;;;;;;;;5040456;28;20503;-70
2022/06/07 06:56:21;;;;;;;4.35;3.95;;;;;;;;;;5023685;28;20025;-70
2022/06/07 06:58:49;;;;;;;4.60;3.88;;;;;;;;;;5040373;28;20116;-71
2022/06/07 07:01:22;;;;;;;5.22;3.85;;;;;;;;;;5020304;28;20040;-70
2022/06/07 07:03:51;;;;;;;5.30;3.60;;;;;;;;;;5022499;28;20032;-70
2022/06/07 07:06:20;;;;;;;5.53;4.05;;;;;;;;;;5023194;28;20028;-69
2022/06/07 07:08:48;;;;;;;4.80;3.58;;;;;;;;;;5022729;28;20045;-69
2022/06/07 07:11:28;;;;;;;5.97;3.80;;;;;;;;;;5022373;28;20029;-70
2022/06/07 07:13:58;;;;;;;4.03;3.63;;;;;;;;;;5021862;28;20041;-70
2022/06/07 07:16:27;;;;;;;4.05;3.42;;;;;;;;;;5006753;28;20512;-70
2022/06/07 07:18:53;;;;;;;4.07;3.70;;;;;;;;;;5022512;28;20040;-70
2022/06/07 07:21:23;;;;;;;4.45;3.42;;;;;;;;;;5030976;28;20041;-70
2022/06/07 07:23:49;;;;;;;6.15;4.10;;;;;;;;;;5005043;28;20404;-71
2022/06/07 07:26:20;;;;;;;9.45;4.25;;;;;;;;;;5021844;28;20148;-70
2022/06/07 07:28:47;;;;;;;4.15;3.78;;;;;;;;;;5022388;28;20402;-71
2022/06/07 07:31:14;;;;;;;5.90;3.40;;;;;;;;;;5040015;28;20044;-71
2022/06/07 07:33:41;;;;;;;3.92;3.55;;;;;;;;;;5021930;28;20033;-71
2022/06/07 07:36:08;;;;;;;6.63;3.15;;;;;;;;;;5007247;28;20580;-70
2022/06/07 07:38:34;;;;;;;3.78;3.28;;;;;;;;;;5026428;28;20032;-70
2022/06/07 07:41:01;;;;;;;3.53;2.72;;;;;;;;;;5026481;28;20083;-70
2022/06/07 07:43:27;;;;;;;3.97;2.63;;;;;;;;;;5025048;28;20037;-70
2022/06/07 07:45:54;;;;;;;7.25;3.10;;;;;;;;;;5025832;28;20504;-70
2022/06/07 07:48:21;;;;;;;3.72;3.10;;;;;;;;;;5044135;28;20487;-70
2022/06/07 07:50:51;;;;;;;3.38;3.05;;;;;;;;;;5026076;28;20033;-70
2022/06/07 07:53:20;;;;;;;2.78;2.58;;;;;;;;;;5024602;28;20035;-70
2022/06/07 07:55:49;;;;;;;4.22;2.83;;;;;;;;;;5026078;28;20029;-70
2022/06/07 07:58:17;;;;;;;4.78;3.05;;;;;;;;;;5025313;28;20033;-70
2022/06/07 08:00:45;;;;;;;3.90;2.72;;;;;;;;;;5026238;28;20087;-71
2022/06/07 08:03:12;;;;;;;2.70;2.50;;;;;;;;;;5023604;28;20033;-72
2022/06/07 08:05:43;;;;;;;7.15;3.30;;;;;;;;;;5022359;28;20166;-72
2022/06/07 08:08:10;;;;;;;2.70;2.50;;;;;;;;;;5025212;28;20156;-73
2022/06/07 08:10:36;;;;;;;3.00;2.70;;;;;;;;;;5009775;28;20127;-73
2022/06/07 08:13:03;;;;;;;7.93;2.75;;;;;;;;;;5025302;28;20045;-73
2022/06/07 08:15:31;;;;;;;2.50;2.30;;;;;;;;;;5042431;28;20033;-73
2022/06/07 08:17:57;;;;;;;2.63;2.40;;;;;;;;;;5008985;28;20033;-73
2022/06/07 08:20:24;;;;;;;3.65;2.40;;;;;;;;;;5022396;28;20492;-75
2022/06/07 08:22:50;;;;;;;2.33;2.15;;;;;;;;;;5041971;28;20044;-73
2022/06/07 08:25:18;;;;;;;4.28;2.28;;;;;;;;;;5022254;28;20030;-73
2022/06/07 08:27:44;;;;;;;2.47;2.28;;;;;;;;;;5043282;28;20029;-73
2022/06/07 08:30:11;;;;;;;3.42;2.45;;;;;;;;;;5024583;28;20089;-73
2022/06/07 08:32:38;;;;;;;3.22;2.92;;;;;;;;;;5024960;28;20033;-73
2022/06/07 08:37:50;;;;;;;3.85;2.88;;;;;;;;;;5042678;28;20083;-73
2022/06/07 08:40:26;;;;;;;4.65;3.10;;;;;;;;;;5043110;28;20060;-73
2022/06/07 08:42:56;;;;;;;3.38;2.80;;;;;;;;;;5024595;28;20029;-75
2022/06/07 08:45:34;;;;;;;3.35;2.47;;;;;;;;;;5024339;28;20107;-73
2022/06/07 08:48:04;;;;;;;4.57;3.55;;;;;;;;;;5042086;28;20033;-74
2022/06/07 08:50:40;;;;;;;3.75;3.45;;;;;;;;;;5024985;28;20036;-74
2022/06/07 08:53:16;;;;;;;3.55;2.60;;;;;;;;;;5007573;28;20065;-73
2022/06/07 08:55:54;;;;;;;3.83;2.78;;;;;;;;;;5025477;28;20486;-73
2022/06/07 08:58:25;;;;;;;3.47;2.65;;;;;;;;;;5018587;28;20718;-74
2022/06/07 09:00:57;;;;;;;2.95;2.75;;;;;;;;;;5040839;28;20068;-73
2022/06/07 09:03:44;;;;;;;4.25;2.80;;;;;;;;;;5022380;28;20033;-74
2022/06/07 09:06:21;;;;;;;2.40;2.20;;;;;;;;;;5021675;28;20036;-73
2022/06/07 09:08:59;;;;;;;2.33;2.13;;;;;;;;;;5034023;28;20048;-74
2022/06/07 09:14:11;;;;;;;2.08;1.88;;;;;;;;;;5040093;28;20803;-73
2022/06/07 09:16:43;;;;;;;4.05;1.95;;;;;;;;;;5022256;28;20524;-71
2022/06/07 09:19:16;;;;;;;2.28;2.03;;;;;;;;;;5041172;28;20041;-70
2022/06/07 09:21:44;;;;;;;2.20;2.00;;;;;;;;;;5042388;28;20036;-71
2022/06/07 09:24:31;;;;;;;2.55;1.85;;;;;;;;;;5024265;28;20041;-71
2022/06/07 09:27:13;;;;;;;3.30;2.35;;;;;;;;;;5042196;28;20493;-72
2022/06/07 09:29:41;;;;;;;3.92;1.80;;;;;;;;;;5041755;28;20116;-71
2022/06/07 09:32:15;;;;;;;2.15;1.95;;;;;;;;;;5041909;28;20033;-72
2022/06/07 09:34:50;;;;;;;2.45;2.25;;;;;;;;;;5042444;28;20036;-72
2022/06/07 09:37:20;;;;;;;2.58;2.10;;;;;;;;;;5042489;28;20064;-72
2022/06/07 09:39:47;;;;;;;2.47;2.13;;;;;;;;;;5023938;28;20037;-71
2022/06/07 09:42:26;;;;;;;2.85;2.00;;;;;;;;;;5041553;28;20123;-71
2022/06/07 09:45:19;;;;;;;2.20;2.10;;;;;;;;;;5042902;28;20047;-71
2022/06/07 09:47:44;;;;;;;;;;;;;;;;;;5038762;28;20049;-72
2022/06/07 09:50:22;;;;;;;2.83;2.50;;;;;;;;;;5040368;28;19966;-72
2022/06/07 09:52:56;;;;;;;2.92;2.70;;;;;;;;;;5041940;28;20051;-71
2022/06/07 09:55:37;;;;;;;2.92;2.60;;;;;;;;;;5023632;28;20035;-72
2022/06/07 09:58:08;;;;;;;3.90;2.92;;;;;;;;;;5040234;28;20040;-69
2022/06/07 10:00:59;;;;;;;3.20;2.90;;;;;;;;;;5040995;28;20037;-72
2022/06/07 10:03:33;;;;;;;3.42;3.13;;;;;;;;;;5039817;28;20476;-70
2022/06/07 10:06:21;;;;;;;3.58;3.28;;;;;;;;;;5040113;28;20037;-71
2022/06/07 10:08:49;;;;;;;3.63;3.20;;;;;;;;;;5040115;28;20477;-70
2022/06/07 10:11:44;;;;;;;3.17;2.88;;;;;;;;;;5039456;28;20529;-72
2022/06/07 10:14:31;;;;;;;3.25;2.95;;;;;;;;;;5002193;28;20143;-72
2022/06/07 10:17:26;;;;;;;4.20;3.25;;;;;;;;;;5005688;28;20072;-72
2022/06/07 10:20:03;;;;;;;4.15;2.85;;;;;;;;;;5021343;28;20074;-71
2022/06/07 10:22:45;;;;;;;4.25;3.85;;;;;;;;;;5021588;28;20423;-71
2022/06/07 10:25:23;;;;;;;3.47;3.22;;;;;;;;;;5023340;28;20051;-71
2022/06/07 10:28:11;;;;;;;3.30;3.05;;;;;;;;;;5040581;28;20059;-71
2022/06/07 10:31:03;;;;;;;4.47;3.45;;;;;;;;;;5022885;28;20087;-73
2022/06/07 10:33:55;;;;;;;3.70;3.40;;;;;;;;;;5027749;28;20048;-72
2022/06/07 10:36:58;;;;;;;5.18;4.47;;;;;;;;;;5039943;28;20086;-72
2022/06/07 10:39:27;;;;;;;5.60;4.72;;;;;;;;;;5009605;28;20052;-71
2022/06/07 10:41:55;;;;;;;4.60;4.15;;;;;;;;;;5021347;28;20036;-72
2022/06/07 10:44:30;;;;;;;7.25;4.90;;;;;;;;;;5038854;28;20029;-72
2022/06/07 10:46:57;;;;;;;5.22;4.00;;;;;;;;;;5041426;28;20037;-72
2022/06/07 10:49:41;;;;;;;5.80;4.72;;;;;;;;;;5039329;28;20083;-72
2022/06/07 10:52:25;;;;;;;5.10;4.60;;;;;;;;;;5020940;28;20033;-71
2022/06/07 10:54:55;;;;;;;5.28;4.78;;;;;;;;;;5038494;28;20055;-71
2022/06/07 10:57:43;;;;;;;5.00;3.90;;;;;;;;;;5040291;28;20079;-71
2022/06/07 11:00:30;;;;;;;4.63;4.22;;;;;;;;;;5023096;28;20041;-72
2022/06/07 11:03:19;;;;;;;4.53;4.13;;;;;;;;;;5038309;28;20025;-71
2022/06/07 11:11:19;;;;;;;5.43;4.70;;;;;;;;;;5041894;28;20055;-72
2022/06/07 11:13:57;;;;;;;6.03;5.40;;;;;;;;;;5042867;28;20033;-72
2022/06/07 11:16:34;;;;;;;5.57;4.88;;;;;;;;;;5019974;28;20040;-72
2022/06/07 11:19:01;;;;;;;5.80;5.30;;;;;;;;;;5043855;28;20078;-72
2022/06/07 11:21:40;;;;;;;5.35;4.80;;;;;;;;;;5042214;28;20116;-72
2022/06/07 11:24:15;;;;;;;5.68;5.00;;;;;;;;;;5042963;28;20033;-73
2022/06/07 11:26:50;;;;;;;5.63;5.00;;;;;;;;;;5024160;28;20032;-73
2022/06/07 11:29:36;;;;;;;5.75;5.15;;;;;;;;;;5043301;28;20035;-72
2022/06/07 11:32:02;;;;;;;6.68;5.47;;;;;;;;;;5041308;28;20477;-72
2022/06/07 11:34:37;;;;;;;5.68;5.10;;;;;;;;;;5043897;28;20044;-72
2022/06/07 11:37:08;;;;;;;4.97;4.47;;;;;;;;;;5043261;28;20041;-70
2022/06/07 11:39:40;;;;;;;6.47;5.15;;;;;;;;;;5043994;28;20055;-72
2022/06/07 11:42:19;;;;;;;4.68;4.28;;;;;;;;;;5044250;28;20037;-72
2022/06/07 11:44:46;;;;;;;6.25;4.72;;;;;;;;;;5043487;28;20072;-72
2022/06/07 11:47:13;;;;;;;4.25;3.95;;;;;;;;;;5042989;28;20492;-71
2022/06/07 11:49:40;;;;;;;3.90;3.50;;;;;;;;;;5044222;28;20135;-70
2022/06/07 11:52:11;;;;;;;6.60;3.53;;;;;;;;;;5040495;28;20033;-71
2022/06/07 11:54:45;;;;;;;4.22;3.58;;;;;;;;;;5026164;28;20049;-71
2022/06/07 11:57:32;;;;;;;7.03;3.78;;;;;;;;;;5043712;28;20045;-71
2022/06/07 12:00:21;;;;;;;4.47;3.70;;;;;;;;;;5043648;28;20032;-71
2022/06/07 12:02:56;;;;;;;4.18;3.25;;;;;;;;;;5043405;28;20064;-71
2022/06/07 12:05:28;;;;;;;3.80;3.38;;;;;;;;;;5044156;28;20037;-71
2022/06/07 12:07:59;;;;;;;3.70;3.40;;;;;;;;;;5043560;28;20033;-71
2022/06/07 12:10:28;;;;;;;;;;;;;;;;;;5043974;28;20044;-72
2022/06/07 12:13:00;;;;;;;4.22;3.80;;;;;;;;;;5044181;28;19923;-71
2022/06/07 12:15:38;;;;;;;3.70;3.15;;;;;;;;;;5025932;28;20029;-72
2022/06/07 12:18:15;;;;;;;3.67;3.33;;;;;;;;;;5044538;28;20185;-70
2022/06/07 12:20:41;;;;;;;4.05;3.25;;;;;;;;;;5043254;28;20043;-71
2022/06/07 12:23:23;;;;;;;4.00;3.60;;;;;;;;;;5040970;28;20033;-70
2022/06/07 12:26:00;;;;;;;5.25;3.20;;;;;;;;;;5044240;28;20474;-70
2022/06/07 12:28:31;;;;;;;3.58;3.10;;;;;;;;;;5026180;28;20037;-71
2022/06/07 12:30:58;;;;;;;6.75;3.70;;;;;;;;;;5042607;28;20040;-69
2022/06/07 12:33:32;;;;;;;3.15;2.92;;;;;;;;;;5042908;28;20082;-71
2022/06/07 12:35:59;;;;;;;3.78;3.05;;;;;;;;;;5044056;28;20132;-69
2022/06/07 12:38:26;;;;;;;5.88;3.05;;;;;;;;;;5043454;28;20028;-70
2022/06/07 12:40:55;;;;;;;5.70;3.28;;;;;;;;;;5044745;28;20025;-70
2022/06/07 12:43:31;;;;;;;5.15;2.97;;;;;;;;;;5045372;28;20036;-70
2022/06/07 12:46:20;;;;;;;8.27;3.47;;;;;;;;;;5044059;28;20492;-71
2022/06/07 12:48:47;;;;;;;3.67;3.38;;;;;;;;;;5041873;28;20033;-71
2022/06/07 12:51:42;;;;;;;5.57;3.05;;;;;;;;;;5043157;28;20028;-72
2022/06/07 12:54:18;;;;;;;3.83;3.25;;;;;;;;;;5029465;28;20131;-70
2022/06/07 12:56:46;;;;;;;3.17;2.72;;;;;;;;;;5043590;28;20033;-71
2022/06/07 13:00:09;;;;;;;3.20;2.90;;;;;;;;;;5044905;28;20412;-73
2022/06/07 13:02:46;;;;;;;2.92;2.60;;;;;;;;;;4962720;28;20603;-72
2022/06/07 13:05:18;;;;;;;2.90;2.60;;;;;;;;;;4961780;28;20046;-73
2022/06/07 13:07:47;;;;;;;3.05;2.85;;;;;;;;;;5013359;28;20448;-72
2022/06/07 13:10:15;;;;;;;3.05;2.72;;;;;;;;;;5025292;28;20039;-73
2022/06/07 13:12:47;;;;;;;2.72;2.40;;;;;;;;;;5023363;28;20041;-72
2022/06/07 13:15:18;;;;;;;;;;;;;;;;;;5042024;28;20469;-70
2022/06/07 13:18:04;;;;;;;2.42;1.95;;;;;;;;;;5023619;28;19916;-72
2022/06/07 13:21:02;;;;;;;2.35;2.25;;;;;;;;;;5023834;28;20032;-71
2022/06/07 13:23:32;;;;;;;2.50;2.30;;;;;;;;;;5040976;28;20037;-71
2022/06/07 13:26:16;;;;;;;6.32;2.40;;;;;;;;;;5023837;28;20044;-72
2022/06/07 13:28:43;;;;;;;8.45;3.63;;;;;;;;;;5041558;28;20029;-72
2022/06/07 13:31:44;;;;;;;3.00;2.70;;;;;;;;;;5042551;28;20036;-71
2022/06/07 13:34:20;;;;;;;3.10;2.80;;;;;;;;;;5041286;28;20059;-71
2022/06/07 13:36:58;;;;;;;4.18;2.92;;;;;;;;;;5042086;28;20033;-71
2022/06/07 13:39:26;;;;;;;7.25;2.50;;;;;;;;;;5042604;28;20054;-72
2022/06/07 13:42:00;;;;;;;3.97;2.80;;;;;;;;;;5043303;28;20047;-73
2022/06/07 13:44:42;;;;;;;2.78;2.50;;;;;;;;;;5041705;28;20047;-71
2022/06/07 13:47:22;;;;;;;;;;;;;;;;;;5042602;28;20065;-71
2022/06/07 13:53:23;;;;;;;2.38;2.17;;;;;;;;;;5016395;28;20041;-72
2022/06/07 13:55:51;;;;;;;2.70;1.98;;;;;;;;;;5041816;28;20048;-70
2022/06/07 13:58:19;;;;;;;2.05;1.85;;;;;;;;;;5041015;28;20063;-71
2022/06/07 14:00:46;;;;;;;3.47;1.95;;;;;;;;;;5041530;28;20544;-71
2022/06/07 14:03:26;;;;;;;3.08;2.08;;;;;;;;;;5041206;28;20036;-70
2022/06/07 14:05:52;;;;;;;2.85;2.10;;;;;;;;;;5041309;28;20508;-72
2022/06/07 14:08:18;;;;;;;2.70;2.50;;;;;;;;;;5042389;28;20033;-71
2022/06/07 14:10:44;;;;;;;3.97;2.63;;;;;;;;;;5042012;28;20175;-69
2022/06/07 14:13:10;;;;;;;5.20;2.72;;;;;;;;;;5041487;28;20040;-70
2022/06/07 14:15:37;;;;;;;3.45;2.60;;;;;;;;;;5042060;28;20028;-70
2022/06/07 14:18:02;;;;;;;2.90;2.22;;;;;;;;;;5041857;28;20043;-71
2022/06/07 14:20:33;;;;;;;4.60;2.30;;;;;;;;;;5039016;28;20036;-72
2022/06/07 14:22:59;;;;;;;2.90;2.20;;;;;;;;;;5039177;28;20087;-71
2022/06/07 14:25:27;;;;;;;2.67;1.67;;;;;;;;;;5039760;28;20037;-70
2022/06/07 14:27:54;;;;;;;1.90;1.80;;;;;;;;;;5039457;28;20041;-70
2022/06/07 14:30:21;;;;;;;4.30;2.42;;;;;;;;;;5039838;28;20036;-70
2022/06/07 14:32:49;;;;;;;3.22;2.00;;;;;;;;;;5038646;28;20041;-71
2022/06/07 14:35:23;;;;;;;2.38;2.17;;;;;;;;;;5021639;28;20048;-69
2022/06/07 14:37:58;;;;;;;2.47;1.95;;;;;;;;;;5039858;28;20040;-71
2022/06/07 14:40:41;;;;;;;3.45;2.05;;;;;;;;;;5040153;28;20103;-70
2022/06/07 14:43:08;;;;;;;3.30;1.70;;;;;;;;;;5039715;28;20060;-70
2022/06/07 14:45:41;;;;;;;4.93;1.65;;;;;;;;;;5039118;28;20033;-70
2022/06/07 14:48:07;;;;;;;1.35;1.25;;;;;;;;;;5039177;28;20037;-71
2022/06/07 14:50:33;;;;;;;3.28;1.63;;;;;;;;;;5039537;28;20037;-70
2022/06/07 14:52:58;;;;;;;3.10;1.42;;;;;;;;;;5039875;28;20079;-70
2022/06/07 14:55:25;;;;;;;3.13;1.20;;;;;;;;;;5039706;28;20028;-69
2022/06/07 14:57:51;;;;;;;2.17;1.58;;;;;;;;;;5041016;28;20044;-70
2022/06/07 15:00:21;;;;;;;1.25;1.17;;;;;;;;;;4992972;28;20029;-69
2022/06/07 15:02:53;;;;;;;1.57;1.40;;;;;;;;;;5040140;28;20490;-70
2022/06/07 15:05:30;;;;;;;2.35;1.20;;;;;;;;;;5039358;28;20299;-70
2022/06/07 15:07:58;;;;;;;1.08;0.98;;;;;;;;;;5040648;28;20419;-69
2022/06/07 15:10:27;;;;;;;1.48;1.30;;;;;;;;;;5038926;28;20036;-70
2022/06/07 15:12:53;;;;;;;2.75;1.30;;;;;;;;;;5038910;28;20021;-70
2022/06/07 15:15:19;;;;;;;1.23;1.15;;;;;;;;;;5038886;28;20076;-70
2022/06/07 15:17:49;;;;;;;2.00;1.30;;;;;;;;;;5039787;28;20064;-70
2022/06/07 15:20:30;;;;;;;1.30;1.20;;;;;;;;;;5020699;28;20031;-71
2022/06/07 15:22:57;;;;;;;1.38;1.27;;;;;;;;;;5039907;28;20035;-70
2022/06/07 15:25:27;;;;;;;3.70;1.50;;;;;;;;;;5038585;28;20029;-71
2022/06/07 15:27:52;;;;;;;1.63;1.30;;;;;;;;;;5039044;28;20112;-68
2022/06/07 15:30:19;;;;;;;1.63;1.30;;;;;;;;;;5038820;28;20132;-70
2022/06/07 15:32:45;;;;;;;2.95;1.20;;;;;;;;;;5020148;28;20385;-70
2022/06/07 15:35:22;;;;;;;1.30;1.20;;;;;;;;;;5038378;28;20029;-70